sensor_id;sensor_type;location;lat;lon;timestamp;P1;durP1;ratioP1;P2;durP2;ratioP2
51780;SDS011;37844;57.126;24.288;2023-06-14T00:01:25;19.40;;;7.82;;
51780;SDS011;37844;57.126;24.288;2023-06-14T00:04:09;13.88;;;7.93;;
51780;SDS011;37844;57.126;24.288;2023-06-14T00:06:53;18.52;;;6.40;;
51780;SDS011;37844;57.126;24.288;2023-06-14T00:09:40;28.27;;;7.95;;
51780;SDS011;37844;57.126;24.288;2023-06-14T00:12:24;18.92;;;9.10;;
51780;SDS011;37844;57.126;24.288;2023-06-14T00:15:08;22.38;;;6.95;;
51780;SDS011;37844;57.126;24.288;2023-06-14T00:17:55;22.52;;;7.05;;
51780;SDS011;37844;57.126;24.288;2023-06-14T00:20:40;12.88;;;7.13;;
51780;SDS011;37844;57.126;24.288;2023-06-14T00:23:26;17.77;;;7.30;;
51780;SDS011;37844;57.126;24.288;2023-06-14T00:26:10;18.42;;;7.10;;
51780;SDS011;37844;57.126;24.288;2023-06-14T00:28:54;24.23;;;7.05;;
51780;SDS011;37844;57.126;24.288;2023-06-14T00:31:38;16.58;;;6.90;;
51780;SDS011;37844;57.126;24.288;2023-06-14T00:34:22;29.45;;;9.30;;
51780;SDS011;37844;57.126;24.288;2023-06-14T00:37:06;19.50;;;6.18;;
51780;SDS011;37844;57.126;24.288;2023-06-14T00:39:50;19.27;;;7.20;;
51780;SDS011;37844;57.126;24.288;2023-06-14T00:42:34;18.63;;;7.68;;
51780;SDS011;37844;57.126;24.288;2023-06-14T00:45:18;16.20;;;7.30;;
51780;SDS011;37844;57.126;24.288;2023-06-14T00:48:03;17.65;;;7.72;;
51780;SDS011;37844;57.126;24.288;2023-06-14T00:50:49;19.80;;;6.95;;
51780;SDS011;37844;57.126;24.288;2023-06-14T00:53:36;27.10;;;9.68;;
51780;SDS011;37844;57.126;24.288;2023-06-14T00:56:23;20.48;;;6.88;;
51780;SDS011;37844;57.126;24.288;2023-06-14T00:59:07;18.67;;;7.20;;
51780;SDS011;37844;57.126;24.288;2023-06-14T01:01:50;13.43;;;7.47;;
51780;SDS011;37844;57.126;24.288;2023-06-14T01:04:35;17.52;;;6.70;;
51780;SDS011;37844;57.126;24.288;2023-06-14T01:13:37;20.02;;;7.38;;
51780;SDS011;37844;57.126;24.288;2023-06-14T01:16:23;22.00;;;7.80;;
51780;SDS011;37844;57.126;24.288;2023-06-14T01:19:09;15.15;;;7.30;;
51780;SDS011;37844;57.126;24.288;2023-06-14T01:21:57;17.30;;;6.25;;
51780;SDS011;37844;57.126;24.288;2023-06-14T01:24:44;15.13;;;7.10;;
51780;SDS011;37844;57.126;24.288;2023-06-14T01:27:28;10.70;;;6.63;;
51780;SDS011;37844;57.126;24.288;2023-06-14T01:30:13;15.65;;;6.57;;
51780;SDS011;37844;57.126;24.288;2023-06-14T01:32:57;11.38;;;6.78;;
51780;SDS011;37844;57.126;24.288;2023-06-14T01:35:43;22.08;;;6.97;;
51780;SDS011;37844;57.126;24.288;2023-06-14T01:38:35;15.13;;;6.68;;
51780;SDS011;37844;57.126;24.288;2023-06-14T01:41:21;14.00;;;7.72;;
51780;SDS011;37844;57.126;24.288;2023-06-14T01:44:06;28.02;;;7.57;;
51780;SDS011;37844;57.126;24.288;2023-06-14T01:46:51;30.52;;;7.55;;
51780;SDS011;37844;57.126;24.288;2023-06-14T01:49:35;13.32;;;7.43;;
51780;SDS011;37844;57.126;24.288;2023-06-14T01:52:19;17.70;;;7.97;;
51780;SDS011;37844;57.126;24.288;2023-06-14T01:55:06;20.20;;;6.93;;
51780;SDS011;37844;57.126;24.288;2023-06-14T01:57:52;18.38;;;8.23;;
51780;SDS011;37844;57.126;24.288;2023-06-14T02:00:36;16.83;;;7.80;;
51780;SDS011;37844;57.126;24.288;2023-06-14T02:03:20;21.77;;;7.43;;
51780;SDS011;37844;57.126;24.288;2023-06-14T02:06:05;13.25;;;6.60;;
51780;SDS011;37844;57.126;24.288;2023-06-14T02:08:48;17.10;;;6.47;;
51780;SDS011;37844;57.126;24.288;2023-06-14T02:11:34;11.23;;;7.13;;
51780;SDS011;37844;57.126;24.288;2023-06-14T02:14:17;10.43;;;6.10;;
51780;SDS011;37844;57.126;24.288;2023-06-14T02:17:02;13.95;;;6.45;;
51780;SDS011;37844;57.126;24.288;2023-06-14T02:19:45;17.60;;;6.43;;
51780;SDS011;37844;57.126;24.288;2023-06-14T02:22:30;14.80;;;6.32;;
51780;SDS011;37844;57.126;24.288;2023-06-14T02:25:14;12.95;;;6.05;;
51780;SDS011;37844;57.126;24.288;2023-06-14T02:27:59;14.95;;;6.20;;
51780;SDS011;37844;57.126;24.288;2023-06-14T02:30:43;15.30;;;6.07;;
51780;SDS011;37844;57.126;24.288;2023-06-14T02:33:27;23.58;;;6.85;;
51780;SDS011;37844;57.126;24.288;2023-06-14T02:36:11;25.65;;;6.63;;
51780;SDS011;37844;57.126;24.288;2023-06-14T02:38:56;21.90;;;6.10;;
51780;SDS011;37844;57.126;24.288;2023-06-14T02:41:41;16.42;;;6.32;;
51780;SDS011;37844;57.126;24.288;2023-06-14T02:44:25;15.50;;;6.28;;
51780;SDS011;37844;57.126;24.288;2023-06-14T02:47:11;29.27;;;7.38;;
51780;SDS011;37844;57.126;24.288;2023-06-14T02:49:55;12.63;;;6.15;;
51780;SDS011;37844;57.126;24.288;2023-06-14T02:52:39;21.48;;;6.15;;
51780;SDS011;37844;57.126;24.288;2023-06-14T02:55:25;17.85;;;6.35;;
51780;SDS011;37844;57.126;24.288;2023-06-14T02:58:10;12.80;;;6.57;;
51780;SDS011;37844;57.126;24.288;2023-06-14T03:00:54;14.20;;;6.65;;
51780;SDS011;37844;57.126;24.288;2023-06-14T03:03:38;10.23;;;6.18;;
51780;SDS011;37844;57.126;24.288;2023-06-14T03:06:23;20.17;;;5.60;;
51780;SDS011;37844;57.126;24.288;2023-06-14T03:09:08;16.42;;;6.18;;
51780;SDS011;37844;57.126;24.288;2023-06-14T03:11:53;18.15;;;5.53;;
51780;SDS011;37844;57.126;24.288;2023-06-14T03:14:37;22.45;;;5.75;;
51780;SDS011;37844;57.126;24.288;2023-06-14T03:17:22;17.42;;;7.32;;
51780;SDS011;37844;57.126;24.288;2023-06-14T03:20:08;15.57;;;6.75;;
51780;SDS011;37844;57.126;24.288;2023-06-14T03:22:52;25.45;;;7.05;;
51780;SDS011;37844;57.126;24.288;2023-06-14T03:25:37;27.42;;;6.95;;
51780;SDS011;37844;57.126;24.288;2023-06-14T03:28:22;17.23;;;6.95;;
51780;SDS011;37844;57.126;24.288;2023-06-14T03:31:06;20.48;;;6.32;;
51780;SDS011;37844;57.126;24.288;2023-06-14T03:33:50;14.23;;;7.40;;
51780;SDS011;37844;57.126;24.288;2023-06-14T03:36:34;17.38;;;6.93;;
51780;SDS011;37844;57.126;24.288;2023-06-14T03:39:18;29.77;;;7.10;;
51780;SDS011;37844;57.126;24.288;2023-06-14T03:42:03;14.02;;;6.13;;
51780;SDS011;37844;57.126;24.288;2023-06-14T03:44:47;26.42;;;7.13;;
51780;SDS011;37844;57.126;24.288;2023-06-14T03:47:31;19.23;;;6.35;;
51780;SDS011;37844;57.126;24.288;2023-06-14T03:50:15;20.23;;;7.22;;
51780;SDS011;37844;57.126;24.288;2023-06-14T03:52:59;16.17;;;6.60;;
51780;SDS011;37844;57.126;24.288;2023-06-14T03:55:45;25.90;;;6.45;;
51780;SDS011;37844;57.126;24.288;2023-06-14T03:58:29;13.45;;;6.55;;
51780;SDS011;37844;57.126;24.288;2023-06-14T04:01:13;15.95;;;6.32;;
51780;SDS011;37844;57.126;24.288;2023-06-14T04:03:57;20.85;;;6.95;;
51780;SDS011;37844;57.126;24.288;2023-06-14T04:06:41;14.73;;;6.22;;
51780;SDS011;37844;57.126;24.288;2023-06-14T04:09:26;13.40;;;5.82;;
51780;SDS011;37844;57.126;24.288;2023-06-14T04:12:10;24.17;;;6.35;;
51780;SDS011;37844;57.126;24.288;2023-06-14T04:14:58;17.70;;;5.18;;
51780;SDS011;37844;57.126;24.288;2023-06-14T04:17:42;19.30;;;5.80;;
51780;SDS011;37844;57.126;24.288;2023-06-14T04:20:26;14.48;;;5.10;;
51780;SDS011;37844;57.126;24.288;2023-06-14T04:25:58;13.73;;;6.57;;
51780;SDS011;37844;57.126;24.288;2023-06-14T04:28:46;20.23;;;6.20;;
51780;SDS011;37844;57.126;24.288;2023-06-14T04:31:30;25.00;;;5.65;;
51780;SDS011;37844;57.126;24.288;2023-06-14T04:34:17;16.10;;;5.63;;
51780;SDS011;37844;57.126;24.288;2023-06-14T04:37:01;15.98;;;5.30;;
51780;SDS011;37844;57.126;24.288;2023-06-14T04:39:45;11.90;;;5.22;;
51780;SDS011;37844;57.126;24.288;2023-06-14T04:42:29;12.20;;;4.70;;
51780;SDS011;37844;57.126;24.288;2023-06-14T04:45:14;12.95;;;4.38;;
51780;SDS011;37844;57.126;24.288;2023-06-14T04:47:59;11.93;;;3.60;;
51780;SDS011;37844;57.126;24.288;2023-06-14T04:50:43;13.27;;;4.28;;
51780;SDS011;37844;57.126;24.288;2023-06-14T04:53:29;8.63;;;3.67;;
51780;SDS011;37844;57.126;24.288;2023-06-14T04:56:14;9.98;;;4.35;;
51780;SDS011;37844;57.126;24.288;2023-06-14T04:59:00;7.95;;;4.00;;
51780;SDS011;37844;57.126;24.288;2023-06-14T05:01:44;8.27;;;3.95;;
51780;SDS011;37844;57.126;24.288;2023-06-14T05:04:31;16.60;;;4.43;;
51780;SDS011;37844;57.126;24.288;2023-06-14T05:07:16;11.18;;;3.72;;
51780;SDS011;37844;57.126;24.288;2023-06-14T05:10:00;12.35;;;3.47;;
51780;SDS011;37844;57.126;24.288;2023-06-14T05:12:45;9.40;;;3.05;;
51780;SDS011;37844;57.126;24.288;2023-06-14T05:15:31;11.45;;;3.45;;
51780;SDS011;37844;57.126;24.288;2023-06-14T05:18:15;8.20;;;3.35;;
51780;SDS011;37844;57.126;24.288;2023-06-14T05:21:00;6.32;;;3.10;;
51780;SDS011;37844;57.126;24.288;2023-06-14T05:23:44;7.72;;;4.43;;
51780;SDS011;37844;57.126;24.288;2023-06-14T05:26:29;7.85;;;3.50;;
51780;SDS011;37844;57.126;24.288;2023-06-14T05:29:13;8.02;;;3.40;;
51780;SDS011;37844;57.126;24.288;2023-06-14T05:31:57;12.73;;;4.43;;
51780;SDS011;37844;57.126;24.288;2023-06-14T05:34:42;11.20;;;3.47;;
51780;SDS011;37844;57.126;24.288;2023-06-14T05:37:26;14.32;;;4.07;;
51780;SDS011;37844;57.126;24.288;2023-06-14T05:40:11;8.77;;;3.17;;
51780;SDS011;37844;57.126;24.288;2023-06-14T05:42:55;15.00;;;2.78;;
51780;SDS011;37844;57.126;24.288;2023-06-14T05:45:39;7.72;;;3.03;;
51780;SDS011;37844;57.126;24.288;2023-06-14T05:48:23;9.88;;;3.45;;
51780;SDS011;37844;57.126;24.288;2023-06-14T05:51:07;12.63;;;3.10;;
51780;SDS011;37844;57.126;24.288;2023-06-14T05:53:52;16.92;;;3.63;;
51780;SDS011;37844;57.126;24.288;2023-06-14T05:56:36;7.45;;;3.38;;
51780;SDS011;37844;57.126;24.288;2023-06-14T05:59:21;19.02;;;3.25;;
51780;SDS011;37844;57.126;24.288;2023-06-14T06:02:05;8.20;;;2.58;;
51780;SDS011;37844;57.126;24.288;2023-06-14T06:04:50;10.25;;;4.15;;
51780;SDS011;37844;57.126;24.288;2023-06-14T06:07:33;14.23;;;3.30;;
51780;SDS011;37844;57.126;24.288;2023-06-14T06:10:17;9.15;;;3.22;;
51780;SDS011;37844;57.126;24.288;2023-06-14T06:13:01;10.48;;;2.70;;
51780;SDS011;37844;57.126;24.288;2023-06-14T06:15:45;14.73;;;3.05;;
51780;SDS011;37844;57.126;24.288;2023-06-14T06:18:30;10.95;;;3.78;;
51780;SDS011;37844;57.126;24.288;2023-06-14T06:21:14;8.95;;;3.22;;
51780;SDS011;37844;57.126;24.288;2023-06-14T06:23:59;6.50;;;2.60;;
51780;SDS011;37844;57.126;24.288;2023-06-14T06:26:45;12.85;;;3.83;;
51780;SDS011;37844;57.126;24.288;2023-06-14T06:29:29;7.75;;;2.97;;
51780;SDS011;37844;57.126;24.288;2023-06-14T06:32:14;5.32;;;2.80;;
51780;SDS011;37844;57.126;24.288;2023-06-14T06:34:59;6.30;;;2.80;;
51780;SDS011;37844;57.126;24.288;2023-06-14T06:37:43;4.72;;;2.22;;
51780;SDS011;37844;57.126;24.288;2023-06-14T06:40:28;5.05;;;2.40;;
51780;SDS011;37844;57.126;24.288;2023-06-14T06:43:12;6.32;;;2.58;;
51780;SDS011;37844;57.126;24.288;2023-06-14T06:46:00;12.68;;;3.25;;
51780;SDS011;37844;57.126;24.288;2023-06-14T06:48:44;3.70;;;1.88;;
51780;SDS011;37844;57.126;24.288;2023-06-14T06:51:28;6.35;;;2.72;;
51780;SDS011;37844;57.126;24.288;2023-06-14T06:54:12;6.45;;;2.78;;
51780;SDS011;37844;57.126;24.288;2023-06-14T06:56:56;10.32;;;2.65;;
51780;SDS011;37844;57.126;24.288;2023-06-14T06:59:40;5.32;;;2.33;;
51780;SDS011;37844;57.126;24.288;2023-06-14T07:02:24;8.23;;;2.58;;
51780;SDS011;37844;57.126;24.288;2023-06-14T07:05:08;6.78;;;2.40;;
51780;SDS011;37844;57.126;24.288;2023-06-14T07:07:52;13.55;;;2.88;;
51780;SDS011;37844;57.126;24.288;2023-06-14T07:10:43;60.63;;;4.35;;
51780;SDS011;37844;57.126;24.288;2023-06-14T07:13:27;7.65;;;2.53;;
51780;SDS011;37844;57.126;24.288;2023-06-14T07:16:11;10.88;;;2.75;;
51780;SDS011;37844;57.126;24.288;2023-06-14T07:18:55;7.88;;;2.78;;
51780;SDS011;37844;57.126;24.288;2023-06-14T07:21:39;4.88;;;2.40;;
51780;SDS011;37844;57.126;24.288;2023-06-14T07:24:22;6.60;;;2.70;;
51780;SDS011;37844;57.126;24.288;2023-06-14T07:27:06;4.63;;;2.47;;
51780;SDS011;37844;57.126;24.288;2023-06-14T07:29:54;13.98;;;3.10;;
51780;SDS011;37844;57.126;24.288;2023-06-14T07:32:38;8.57;;;3.30;;
51780;SDS011;37844;57.126;24.288;2023-06-14T07:35:22;13.10;;;2.25;;
51780;SDS011;37844;57.126;24.288;2023-06-14T07:38:06;4.38;;;2.10;;
51780;SDS011;37844;57.126;24.288;2023-06-14T07:40:50;9.88;;;2.17;;
51780;SDS011;37844;57.126;24.288;2023-06-14T07:43:34;15.52;;;2.70;;
51780;SDS011;37844;57.126;24.288;2023-06-14T07:46:30;8.52;;;2.90;;
51780;SDS011;37844;57.126;24.288;2023-06-14T07:49:15;10.70;;;3.10;;
51780;SDS011;37844;57.126;24.288;2023-06-14T07:52:00;13.60;;;3.03;;
51780;SDS011;37844;57.126;24.288;2023-06-14T07:54:44;3.60;;;2.10;;
51780;SDS011;37844;57.126;24.288;2023-06-14T07:57:28;12.27;;;2.60;;
51780;SDS011;37844;57.126;24.288;2023-06-14T08:00:13;6.40;;;2.17;;
51780;SDS011;37844;57.126;24.288;2023-06-14T08:02:59;11.93;;;2.83;;
51780;SDS011;37844;57.126;24.288;2023-06-14T08:05:43;10.93;;;2.22;;
51780;SDS011;37844;57.126;24.288;2023-06-14T08:08:31;6.28;;;2.45;;
51780;SDS011;37844;57.126;24.288;2023-06-14T08:11:15;4.43;;;1.92;;
51780;SDS011;37844;57.126;24.288;2023-06-14T08:13:59;6.55;;;2.75;;
51780;SDS011;37844;57.126;24.288;2023-06-14T08:16:43;9.70;;;2.85;;
51780;SDS011;37844;57.126;24.288;2023-06-14T08:19:27;4.28;;;2.20;;
51780;SDS011;37844;57.126;24.288;2023-06-14T08:22:12;7.22;;;2.90;;
51780;SDS011;37844;57.126;24.288;2023-06-14T08:24:56;9.75;;;2.75;;
51780;SDS011;37844;57.126;24.288;2023-06-14T08:27:40;4.60;;;2.30;;
51780;SDS011;37844;57.126;24.288;2023-06-14T08:30:25;5.22;;;2.80;;
51780;SDS011;37844;57.126;24.288;2023-06-14T08:33:09;6.38;;;2.78;;
51780;SDS011;37844;57.126;24.288;2023-06-14T08:35:53;7.00;;;2.53;;
51780;SDS011;37844;57.126;24.288;2023-06-14T08:38:37;7.93;;;2.35;;
51780;SDS011;37844;57.126;24.288;2023-06-14T08:41:22;12.55;;;2.55;;
51780;SDS011;37844;57.126;24.288;2023-06-14T08:44:10;6.05;;;2.13;;
51780;SDS011;37844;57.126;24.288;2023-06-14T08:46:59;5.88;;;2.75;;
51780;SDS011;37844;57.126;24.288;2023-06-14T08:49:45;5.25;;;2.47;;
51780;SDS011;37844;57.126;24.288;2023-06-14T08:52:32;5.28;;;2.22;;
51780;SDS011;37844;57.126;24.288;2023-06-14T08:55:23;5.93;;;2.85;;
51780;SDS011;37844;57.126;24.288;2023-06-14T08:58:09;6.38;;;2.40;;
51780;SDS011;37844;57.126;24.288;2023-06-14T09:00:57;11.90;;;2.65;;
51780;SDS011;37844;57.126;24.288;2023-06-14T09:03:45;6.30;;;2.30;;
51780;SDS011;37844;57.126;24.288;2023-06-14T09:06:31;3.80;;;2.25;;
51780;SDS011;37844;57.126;24.288;2023-06-14T09:09:16;9.27;;;2.95;;
51780;SDS011;37844;57.126;24.288;2023-06-14T09:12:00;8.23;;;2.38;;
51780;SDS011;37844;57.126;24.288;2023-06-14T09:14:44;6.95;;;3.13;;
51780;SDS011;37844;57.126;24.288;2023-06-14T09:17:29;6.60;;;2.35;;
51780;SDS011;37844;57.126;24.288;2023-06-14T09:20:13;5.53;;;2.78;;
51780;SDS011;37844;57.126;24.288;2023-06-14T09:23:01;4.47;;;2.53;;
51780;SDS011;37844;57.126;24.288;2023-06-14T09:25:48;6.55;;;3.70;;
51780;SDS011;37844;57.126;24.288;2023-06-14T09:28:34;10.15;;;2.78;;
51780;SDS011;37844;57.126;24.288;2023-06-14T09:31:19;6.57;;;2.83;;
51780;SDS011;37844;57.126;24.288;2023-06-14T09:34:04;10.88;;;3.25;;
51780;SDS011;37844;57.126;24.288;2023-06-14T09:36:48;10.35;;;2.83;;
51780;SDS011;37844;57.126;24.288;2023-06-14T09:39:34;4.57;;;2.58;;
51780;SDS011;37844;57.126;24.288;2023-06-14T09:42:18;5.82;;;2.80;;
51780;SDS011;37844;57.126;24.288;2023-06-14T09:45:03;9.77;;;2.80;;
51780;SDS011;37844;57.126;24.288;2023-06-14T09:47:51;10.27;;;2.88;;
51780;SDS011;37844;57.126;24.288;2023-06-14T09:50:35;8.43;;;3.15;;
51780;SDS011;37844;57.126;24.288;2023-06-14T09:53:20;6.68;;;3.00;;
51780;SDS011;37844;57.126;24.288;2023-06-14T09:56:09;20.27;;;3.00;;
51780;SDS011;37844;57.126;24.288;2023-06-14T09:58:56;9.73;;;3.38;;
51780;SDS011;37844;57.126;24.288;2023-06-14T10:01:41;5.07;;;2.50;;
51780;SDS011;37844;57.126;24.288;2023-06-14T10:04:27;11.95;;;3.38;;
51780;SDS011;37844;57.126;24.288;2023-06-14T10:07:15;8.70;;;2.05;;
51780;SDS011;37844;57.126;24.288;2023-06-14T10:10:03;5.35;;;2.58;;
51780;SDS011;37844;57.126;24.288;2023-06-14T10:12:48;6.53;;;2.58;;
51780;SDS011;37844;57.126;24.288;2023-06-14T10:15:35;5.55;;;2.38;;
51780;SDS011;37844;57.126;24.288;2023-06-14T10:21:33;7.97;;;3.20;;
51780;SDS011;37844;57.126;24.288;2023-06-14T10:24:20;9.55;;;3.15;;
51780;SDS011;37844;57.126;24.288;2023-06-14T10:27:13;15.73;;;2.55;;
51780;SDS011;37844;57.126;24.288;2023-06-14T10:36:01;14.48;;;3.10;;
51780;SDS011;37844;57.126;24.288;2023-06-14T10:39:14;7.75;;;2.67;;
51780;SDS011;37844;57.126;24.288;2023-06-14T10:42:01;11.73;;;3.63;;
51780;SDS011;37844;57.126;24.288;2023-06-14T10:44:57;11.20;;;2.65;;
51780;SDS011;37844;57.126;24.288;2023-06-14T10:47:45;16.02;;;3.47;;
51780;SDS011;37844;57.126;24.288;2023-06-14T10:50:36;12.38;;;3.45;;
51780;SDS011;37844;57.126;24.288;2023-06-14T10:53:23;13.05;;;2.95;;
51780;SDS011;37844;57.126;24.288;2023-06-14T10:56:12;7.07;;;3.70;;
51780;SDS011;37844;57.126;24.288;2023-06-14T10:59:08;6.53;;;2.77;;
51780;SDS011;37844;57.126;24.288;2023-06-14T11:04:55;11.05;;;2.60;;
51780;SDS011;37844;57.126;24.288;2023-06-14T11:07:55;6.93;;;2.60;;
51780;SDS011;37844;57.126;24.288;2023-06-14T11:10:51;10.70;;;3.65;;
51780;SDS011;37844;57.126;24.288;2023-06-14T11:13:50;7.57;;;2.45;;
51780;SDS011;37844;57.126;24.288;2023-06-14T11:16:35;4.03;;;2.28;;
51780;SDS011;37844;57.126;24.288;2023-06-14T11:19:21;7.93;;;2.35;;
51780;SDS011;37844;57.126;24.288;2023-06-14T11:22:05;4.95;;;2.33;;
51780;SDS011;37844;57.126;24.288;2023-06-14T11:24:50;7.82;;;2.55;;
51780;SDS011;37844;57.126;24.288;2023-06-14T11:27:34;7.78;;;3.05;;
51780;SDS011;37844;57.126;24.288;2023-06-14T11:30:19;7.70;;;2.83;;
51780;SDS011;37844;57.126;24.288;2023-06-14T11:33:03;11.68;;;2.55;;
51780;SDS011;37844;57.126;24.288;2023-06-14T11:35:47;21.05;;;3.80;;
51780;SDS011;37844;57.126;24.288;2023-06-14T11:38:34;8.02;;;2.50;;
51780;SDS011;37844;57.126;24.288;2023-06-14T11:41:20;22.00;;;2.55;;
51780;SDS011;37844;57.126;24.288;2023-06-14T11:44:08;8.52;;;3.58;;
51780;SDS011;37844;57.126;24.288;2023-06-14T11:46:53;7.85;;;2.05;;
51780;SDS011;37844;57.126;24.288;2023-06-14T11:49:37;7.25;;;2.53;;
51780;SDS011;37844;57.126;24.288;2023-06-14T11:52:21;5.97;;;2.63;;
51780;SDS011;37844;57.126;24.288;2023-06-14T11:55:07;10.65;;;2.67;;
51780;SDS011;37844;57.126;24.288;2023-06-14T11:57:55;7.80;;;2.40;;
51780;SDS011;37844;57.126;24.288;2023-06-14T12:00:39;12.75;;;2.60;;
51780;SDS011;37844;57.126;24.288;2023-06-14T12:03:24;16.30;;;2.50;;
51780;SDS011;37844;57.126;24.288;2023-06-14T12:06:08;8.75;;;2.88;;
51780;SDS011;37844;57.126;24.288;2023-06-14T12:08:55;16.83;;;2.63;;
51780;SDS011;37844;57.126;24.288;2023-06-14T12:11:40;5.00;;;2.45;;
51780;SDS011;37844;57.126;24.288;2023-06-14T12:14:28;9.68;;;2.67;;
51780;SDS011;37844;57.126;24.288;2023-06-14T12:17:19;10.13;;;2.60;;
51780;SDS011;37844;57.126;24.288;2023-06-14T12:20:06;13.20;;;2.80;;
51780;SDS011;37844;57.126;24.288;2023-06-14T12:22:55;17.42;;;2.92;;
51780;SDS011;37844;57.126;24.288;2023-06-14T12:25:40;5.72;;;2.72;;
51780;SDS011;37844;57.126;24.288;2023-06-14T12:28:25;14.48;;;2.90;;
51780;SDS011;37844;57.126;24.288;2023-06-14T12:31:15;6.88;;;2.58;;
51780;SDS011;37844;57.126;24.288;2023-06-14T12:33:59;10.55;;;2.58;;
51780;SDS011;37844;57.126;24.288;2023-06-14T12:36:44;9.68;;;3.20;;
51780;SDS011;37844;57.126;24.288;2023-06-14T12:39:30;8.05;;;2.53;;
51780;SDS011;37844;57.126;24.288;2023-06-14T12:42:17;7.22;;;2.50;;
51780;SDS011;37844;57.126;24.288;2023-06-14T12:45:01;6.25;;;2.13;;
51780;SDS011;37844;57.126;24.288;2023-06-14T12:47:46;28.50;;;3.92;;
51780;SDS011;37844;57.126;24.288;2023-06-14T12:50:30;7.95;;;2.63;;
51780;SDS011;37844;57.126;24.288;2023-06-14T12:53:14;5.70;;;2.58;;
51780;SDS011;37844;57.126;24.288;2023-06-14T12:55:59;9.77;;;3.03;;
51780;SDS011;37844;57.126;24.288;2023-06-14T12:58:43;9.43;;;3.42;;
51780;SDS011;37844;57.126;24.288;2023-06-14T13:01:27;7.47;;;2.72;;
51780;SDS011;37844;57.126;24.288;2023-06-14T13:04:11;9.60;;;2.90;;
51780;SDS011;37844;57.126;24.288;2023-06-14T13:06:56;8.82;;;2.80;;
51780;SDS011;37844;57.126;24.288;2023-06-14T13:09:40;10.35;;;3.47;;
51780;SDS011;37844;57.126;24.288;2023-06-14T13:12:24;7.47;;;2.75;;
51780;SDS011;37844;57.126;24.288;2023-06-14T13:15:08;9.40;;;3.03;;
51780;SDS011;37844;57.126;24.288;2023-06-14T13:17:53;13.68;;;3.03;;
51780;SDS011;37844;57.126;24.288;2023-06-14T13:20:37;6.43;;;2.80;;
51780;SDS011;37844;57.126;24.288;2023-06-14T13:23:21;8.65;;;2.35;;
51780;SDS011;37844;57.126;24.288;2023-06-14T13:26:05;6.53;;;3.17;;
51780;SDS011;37844;57.126;24.288;2023-06-14T13:28:49;22.65;;;4.43;;
51780;SDS011;37844;57.126;24.288;2023-06-14T13:31:33;9.73;;;3.58;;
51780;SDS011;37844;57.126;24.288;2023-06-14T13:34:18;6.35;;;3.58;;
51780;SDS011;37844;57.126;24.288;2023-06-14T13:37:02;12.75;;;3.38;;
51780;SDS011;37844;57.126;24.288;2023-06-14T13:39:46;11.52;;;3.42;;
51780;SDS011;37844;57.126;24.288;2023-06-14T13:42:30;6.97;;;2.92;;
51780;SDS011;37844;57.126;24.288;2023-06-14T13:45:15;13.02;;;4.20;;
51780;SDS011;37844;57.126;24.288;2023-06-14T13:48:00;6.85;;;3.20;;
51780;SDS011;37844;57.126;24.288;2023-06-14T13:50:44;7.32;;;2.95;;
51780;SDS011;37844;57.126;24.288;2023-06-14T13:53:30;8.60;;;4.15;;
51780;SDS011;37844;57.126;24.288;2023-06-14T13:56:15;8.15;;;3.13;;
51780;SDS011;37844;57.126;24.288;2023-06-14T13:58:59;6.88;;;3.28;;
51780;SDS011;37844;57.126;24.288;2023-06-14T14:01:44;9.63;;;3.05;;
51780;SDS011;37844;57.126;24.288;2023-06-14T14:04:28;9.50;;;3.30;;
51780;SDS011;37844;57.126;24.288;2023-06-14T14:07:12;8.25;;;3.45;;
51780;SDS011;37844;57.126;24.288;2023-06-14T14:09:56;9.40;;;3.45;;
51780;SDS011;37844;57.126;24.288;2023-06-14T14:12:41;7.82;;;2.88;;
51780;SDS011;37844;57.126;24.288;2023-06-14T14:15:25;7.95;;;2.80;;
51780;SDS011;37844;57.126;24.288;2023-06-14T14:18:09;10.85;;;2.95;;
51780;SDS011;37844;57.126;24.288;2023-06-14T14:20:54;11.90;;;3.10;;
51780;SDS011;37844;57.126;24.288;2023-06-14T14:23:38;5.63;;;2.75;;
51780;SDS011;37844;57.126;24.288;2023-06-14T14:26:23;11.15;;;3.97;;
51780;SDS011;37844;57.126;24.288;2023-06-14T14:29:08;6.28;;;3.47;;
51780;SDS011;37844;57.126;24.288;2023-06-14T14:31:55;14.75;;;3.30;;
51780;SDS011;37844;57.126;24.288;2023-06-14T14:34:42;6.07;;;3.42;;
51780;SDS011;37844;57.126;24.288;2023-06-14T14:37:26;5.32;;;2.65;;
51780;SDS011;37844;57.126;24.288;2023-06-14T14:40:11;9.88;;;3.38;;
51780;SDS011;37844;57.126;24.288;2023-06-14T14:42:55;5.85;;;2.42;;
51780;SDS011;37844;57.126;24.288;2023-06-14T14:45:39;9.27;;;3.70;;
51780;SDS011;37844;57.126;24.288;2023-06-14T14:48:23;8.77;;;2.72;;
51780;SDS011;37844;57.126;24.288;2023-06-14T14:51:07;21.75;;;3.33;;
51780;SDS011;37844;57.126;24.288;2023-06-14T14:53:51;8.20;;;2.70;;
51780;SDS011;37844;57.126;24.288;2023-06-14T14:56:35;6.13;;;2.90;;
51780;SDS011;37844;57.126;24.288;2023-06-14T14:59:21;5.82;;;3.58;;
51780;SDS011;37844;57.126;24.288;2023-06-14T15:02:05;6.53;;;3.10;;
51780;SDS011;37844;57.126;24.288;2023-06-14T15:04:50;10.77;;;2.55;;
51780;SDS011;37844;57.126;24.288;2023-06-14T15:07:34;21.48;;;3.72;;
51780;SDS011;37844;57.126;24.288;2023-06-14T15:10:18;10.52;;;3.60;;
51780;SDS011;37844;57.126;24.288;2023-06-14T15:13:02;8.60;;;2.83;;
51780;SDS011;37844;57.126;24.288;2023-06-14T15:15:46;5.75;;;3.00;;
51780;SDS011;37844;57.126;24.288;2023-06-14T15:18:30;19.95;;;3.33;;
51780;SDS011;37844;57.126;24.288;2023-06-14T15:21:14;9.38;;;2.88;;
51780;SDS011;37844;57.126;24.288;2023-06-14T15:23:58;18.42;;;9.85;;
51780;SDS011;37844;57.126;24.288;2023-06-14T15:26:42;7.18;;;4.25;;
51780;SDS011;37844;57.126;24.288;2023-06-14T15:29:26;7.10;;;2.88;;
51780;SDS011;37844;57.126;24.288;2023-06-14T15:32:10;14.38;;;2.88;;
51780;SDS011;37844;57.126;24.288;2023-06-14T15:34:54;12.95;;;3.28;;
51780;SDS011;37844;57.126;24.288;2023-06-14T15:37:39;7.40;;;2.95;;
51780;SDS011;37844;57.126;24.288;2023-06-14T15:40:37;9.63;;;2.45;;
51780;SDS011;37844;57.126;24.288;2023-06-14T15:43:21;8.32;;;2.80;;
51780;SDS011;37844;57.126;24.288;2023-06-14T15:46:07;5.57;;;2.90;;
51780;SDS011;37844;57.126;24.288;2023-06-14T15:48:51;14.15;;;3.92;;
51780;SDS011;37844;57.126;24.288;2023-06-14T15:51:34;22.52;;;3.40;;
51780;SDS011;37844;57.126;24.288;2023-06-14T15:54:18;9.50;;;3.05;;
51780;SDS011;37844;57.126;24.288;2023-06-14T15:57:03;5.45;;;2.95;;
51780;SDS011;37844;57.126;24.288;2023-06-14T15:59:47;4.07;;;2.35;;
51780;SDS011;37844;57.126;24.288;2023-06-14T16:02:32;8.60;;;2.70;;
51780;SDS011;37844;57.126;24.288;2023-06-14T16:05:16;6.03;;;2.60;;
51780;SDS011;37844;57.126;24.288;2023-06-14T16:08:00;13.57;;;4.05;;
51780;SDS011;37844;57.126;24.288;2023-06-14T16:10:44;13.38;;;3.42;;
51780;SDS011;37844;57.126;24.288;2023-06-14T16:13:28;9.80;;;2.95;;
51780;SDS011;37844;57.126;24.288;2023-06-14T16:16:13;10.85;;;2.90;;
51780;SDS011;37844;57.126;24.288;2023-06-14T16:18:57;10.50;;;4.15;;
51780;SDS011;37844;57.126;24.288;2023-06-14T16:21:41;10.43;;;3.78;;
51780;SDS011;37844;57.126;24.288;2023-06-14T16:24:25;7.22;;;2.55;;
51780;SDS011;37844;57.126;24.288;2023-06-14T16:27:09;9.57;;;3.03;;
51780;SDS011;37844;57.126;24.288;2023-06-14T16:29:53;9.57;;;3.05;;
51780;SDS011;37844;57.126;24.288;2023-06-14T16:32:38;10.05;;;2.85;;
51780;SDS011;37844;57.126;24.288;2023-06-14T16:35:22;12.13;;;3.58;;